Time;durP1;ratioP1;P1;durP2;ratioP2;P2;SDS_P1;SDS_P2;PMS_P1;PMS_P2;Temp;Humidity;BMP_temperature;BMP_pressure;BME280_temperature;BME280_humidity;BME280_pressure;Samples;Min_cycle;Max_cycle;Signal;HPM_P1;HPM_P2
2023/10/09 00:04:45;;;;;;;4.40;1.20;;;;;;;12.76;77.85;99397.03;10412287;28;20091;-77
2023/10/09 00:09:50;;;;;;;4.88;1.17;;;;;;;12.35;78.43;99366.06;10412004;28;20056;-77
2023/10/09 00:14:55;;;;;;;2.38;1.10;;;;;;;12.55;78.83;99448.69;10413097;28;20140;-75
2023/10/09 00:19:59;;;;;;;3.88;0.82;;;;;;;12.15;78.85;99413.16;10413086;28;20037;-76
2023/10/09 00:25:12;;;;;;;2.50;0.85;;;;;;;12.21;79.30;99453.13;10412297;28;20041;-76
2023/10/09 00:30:19;;;;;;;3.38;1.08;;;;;;;12.09;80.02;99510.63;10412497;28;20045;-76
2023/10/09 00:40:45;;;;;;;4.95;0.80;;;;;;;11.81;80.35;99543.38;10411575;28;20041;-76
2023/10/09 00:45:47;;;;;;;2.47;0.80;;;;;;;11.72;80.58;99557.03;10411586;28;20041;-76
2023/10/09 00:50:52;;;;;;;2.03;0.90;;;;;;;11.74;80.44;99586.94;10411565;28;20042;-76
2023/10/09 00:55:56;;;;;;;2.45;0.77;;;;;;;11.73;80.49;99606.59;10413572;28;20042;-75
2023/10/09 01:00:59;;;;;;;1.20;0.40;;;;;;;11.57;79.64;99619.13;10418385;28;20049;-76
2023/10/09 01:11:29;;;;;;;1.85;0.52;;;;;;;11.42;80.07;99652.97;10419073;28;20096;-76
2023/10/09 01:16:31;;;;;;;1.60;0.40;;;;;;;11.31;79.92;99649.00;10418432;28;20072;-76
2023/10/09 01:21:31;;;;;;;1.98;0.40;;;;;;;11.25;79.86;99646.25;10417793;28;20056;-74
2023/10/09 01:26:47;;;;;;;4.72;0.90;;;;;;;10.80;80.88;99595.94;10417652;28;20045;-75
2023/10/09 01:31:55;;;;;;;3.85;0.80;;;;;;;10.97;82.04;99661.09;10417323;28;20053;-77
2023/10/09 01:36:58;;;;;;;8.35;1.23;;;;;;;10.35;82.93;99624.41;10417034;28;20060;-76
2023/10/09 01:42:00;;;;;;;2.65;0.80;;;;;;;10.29;83.99;99651.69;10417116;28;20386;-76
2023/10/09 01:47:06;;;;;;;3.15;0.60;;;;;;;10.44;84.39;99708.25;10417107;28;20432;-76
2023/10/09 01:52:09;;;;;;;3.22;0.70;;;;;;;10.24;85.06;99701.81;10417257;28;20038;-77
2023/10/09 01:57:12;;;;;;;4.53;1.13;;;;;;;9.97;85.00;99725.28;10416362;28;20091;-77
2023/10/09 02:02:35;;;;;;;4.43;1.08;;;;;;;9.60;86.89;99748.09;10414799;28;20052;-76
2023/10/09 02:07:51;;;;;;;5.38;0.95;;;;;;;9.21;85.76;99712.88;10415856;28;20392;-77
2023/10/09 02:13:16;;;;;;;4.70;1.10;;;;;;;9.46;86.21;99771.91;10415858;28;20041;-75
2023/10/09 02:18:18;;;;;;;3.53;1.10;;;;;;;9.44;86.26;99774.72;10414963;28;20133;-77
2023/10/09 02:23:24;;;;;;;2.88;0.98;;;;;;;8.68;85.67;99672.94;10415387;28;20132;-77
2023/10/09 02:28:25;;;;;;;3.25;0.77;;;;;;;9.32;85.43;99802.59;10415660;28;20042;-77
2023/10/09 02:33:28;;;;;;;3.65;0.65;;;;;;;9.00;85.33;99772.59;10415337;28;20033;-76
2023/10/09 02:38:31;;;;;;;6.43;0.90;;;;;;;9.19;84.99;99819.06;10415304;28;20095;-80
2023/10/09 02:43:46;;;;;;;6.00;0.60;;;;;;;9.01;85.10;99800.75;10411452;28;20409;-76
2023/10/09 02:48:51;;;;;;;10.15;1.13;;;;;;;8.85;84.75;99766.38;10414101;28;20068;-78
2023/10/09 02:54:47;;;;;;;6.88;0.50;;;;;;;9.14;85.95;99854.03;10414121;28;20095;-78
2023/10/09 02:59:29;;;;;;;3.92;0.55;;;;;;;9.09;85.02;99877.56;10411037;28;20124;-77
2023/10/09 03:04:30;;;;;;;4.82;0.52;;;;;;;9.05;85.21;99886.84;10414468;28;20049;-78
2023/10/09 03:09:32;;;;;;;9.13;0.70;;;;;;;9.07;85.69;99899.94;10414222;28;20460;-75
2023/10/09 03:14:43;;;;;;;1.75;0.30;;;;;;;9.09;85.10;99904.06;10414234;28;20037;-78
2023/10/09 03:19:45;;;;;;;2.78;0.40;;;;;;;9.10;85.08;99916.31;10412751;28;20116;-77
2023/10/09 03:24:46;;;;;;;5.57;0.70;;;;;;;8.97;85.32;99900.09;10413109;28;20041;-77
2023/10/09 03:29:51;;;;;;;2.95;0.52;;;;;;;9.07;84.75;99950.28;10413696;28;20037;-76
2023/10/09 03:34:52;;;;;;;4.43;0.70;;;;;;;8.66;84.82;99897.34;10413027;28;20485;-76
2023/10/09 03:39:54;;;;;;;3.60;0.50;;;;;;;9.03;84.87;99978.09;10411572;28;20041;-77
2023/10/09 03:44:57;;;;;;;2.67;0.60;;;;;;;9.05;84.29;99965.50;10412468;28;20049;-78
2023/10/09 03:50:02;;;;;;;2.15;0.57;;;;;;;9.01;83.80;99988.88;10410141;28;20033;-78
2023/10/09 03:55:07;;;;;;;4.25;0.60;;;;;;;9.06;83.22;99999.81;10412996;28;20073;-78
2023/10/09 04:00:28;;;;;;;3.30;0.50;;;;;;;9.03;82.71;99968.31;10412186;28;20045;-80
2023/10/09 04:05:29;;;;;;;1.85;0.60;;;;;;;8.40;80.93;99887.72;10412123;28;20420;-78
2023/10/09 04:10:42;;;;;;;5.90;0.88;;;;;;;8.99;79.08;100005.91;10413361;28;20065;-75
2023/10/09 04:15:43;;;;;;;1.47;0.60;;;;;;;8.94;77.78;100010.88;10411992;28;20409;-79
2023/10/09 04:26:14;;;;;;;5.82;0.40;;;;;;;8.80;76.03;99999.97;10392112;28;20077;-77
2023/10/09 04:31:17;;;;;;;4.10;0.40;;;;;;;8.89;75.40;99998.97;10415671;28;20566;-73
2023/10/09 04:41:27;;;;;;;3.35;0.60;;;;;;;8.58;74.88;99980.22;10417886;28;20049;-77
2023/10/09 04:46:28;;;;;;;4.05;0.45;;;;;;;8.89;74.78;100035.22;10419131;28;20037;-76
2023/10/09 04:51:34;;;;;;;6.15;0.80;;;;;;;8.96;74.64;100083.91;10420696;28;20037;-79
2023/10/09 04:56:51;;;;;;;8.88;3.67;;;;;;;8.97;74.55;100095.31;10418993;28;20063;-77
2023/10/09 05:01:58;;;;;;;5.63;0.90;;;;;;;9.03;74.29;100098.13;10418687;28;20038;-77
2023/10/09 05:06:59;;;;;;;5.60;1.38;;;;;;;8.58;74.28;100045.59;10418835;28;20042;-77
2023/10/09 05:12:10;;;;;;;10.45;3.80;;;;;;;8.90;74.27;100133.06;10418951;28;20421;-78
2023/10/09 05:17:15;;;;;;;7.38;3.33;;;;;;;8.86;74.04;100144.97;10418034;28;20045;-78
2023/10/09 05:27:50;;;;;;;3.20;0.68;;;;;;;8.72;73.66;100120.94;10418161;28;20405;-78
2023/10/09 05:32:58;;;;;;;1.63;0.40;;;;;;;8.65;73.94;100158.66;10417942;28;20127;-77
2023/10/09 05:38:04;;;;;;;1.17;0.40;;;;;;;8.49;74.12;100160.41;10418561;28;20038;-77
2023/10/09 05:43:05;;;;;;;0.90;0.30;;;;;;;8.23;75.11;100169.19;10417542;28;20535;-77
2023/10/09 05:48:48;;;;;;;8.55;0.68;;;;;;;8.04;76.32;100175.50;10415571;28;20412;-77
2023/10/09 06:04:15;;;;;;;2.25;0.40;;;;;;;7.04;80.39;100148.44;10416372;28;20171;-78
2023/10/09 06:19:31;;;;;;;1.90;0.50;;;;;;;7.32;84.54;100260.16;10415524;28;20049;-76
2023/10/09 06:24:41;;;;;;;3.28;0.45;;;;;;;7.36;85.91;100263.38;10415912;28;20669;-76
2023/10/09 06:34:51;;;;;;;3.95;0.93;;;;;;;7.03;88.24;100186.41;10416041;28;20037;-76
2023/10/09 06:45:16;;;;;;;6.03;0.60;;;;;;;7.22;91.93;100213.66;10414893;28;20053;-77
2023/10/09 06:55:32;;;;;;;2.50;0.57;;;;;;;7.25;90.78;100274.97;10414051;28;20033;-78
2023/10/09 07:06:23;;;;;;;3.97;0.50;;;;;;;7.41;93.95;100281.41;10414205;28;20124;-78
2023/10/09 07:16:57;;;;;;;1.33;0.50;;;;;;;7.45;93.08;100262.47;10414138;28;20088;-78
2023/10/09 07:22:02;;;;;;;1.08;0.52;;;;;;;7.69;93.00;100295.41;10414315;28;20615;-79
2023/10/09 07:27:10;;;;;;;3.58;0.70;;;;;;;7.66;94.12;100256.06;10413717;28;20103;-79
2023/10/09 07:32:20;;;;;;;1.95;0.63;;;;;;;8.28;93.37;100338.09;10413485;28;20513;-79
2023/10/09 07:37:30;;;;;;;4.20;0.60;;;;;;;8.22;93.58;100336.88;10413503;28;20037;-79
2023/10/09 07:53:25;;;;;;;3.95;0.52;;;;;;;8.23;92.64;100320.84;10407682;28;20042;-79
2023/10/09 07:58:26;;;;;;;2.63;0.47;;;;;;;8.38;91.89;100317.66;10413080;28;20099;-79
2023/10/09 08:03:32;;;;;;;1.63;0.50;;;;;;;8.38;92.17;100328.25;10414028;28;20493;-80
2023/10/09 08:13:49;;;;;;;2.85;0.60;;;;;;;8.59;91.85;100318.16;10421273;28;20136;-78
2023/10/09 08:18:56;;;;;;;2.30;0.57;;;;;;;8.91;91.97;100375.81;10421068;28;20096;-78
2023/10/09 08:24:04;;;;;;;1.23;0.52;;;;;;;8.95;91.19;100315.41;10420973;28;20045;-79
2023/10/09 08:29:17;;;;;;;1.35;0.50;;;;;;;9.18;90.58;100363.34;10420486;28;20092;-77
2023/10/09 08:34:27;;;;;;;1.67;0.47;;;;;;;8.73;90.12;100290.25;10420260;28;20037;-79
2023/10/09 08:39:33;;;;;;;3.92;0.50;;;;;;;8.86;89.83;100321.63;10420079;28;20077;-77
2023/10/09 08:44:34;;;;;;;1.17;0.50;;;;;;;8.79;89.53;100357.66;10419863;28;20045;-77
2023/10/09 08:49:37;;;;;;;1.38;0.70;;;;;;;8.77;89.01;100322.59;10420283;28;20042;-77
2023/10/09 08:54:37;;;;;;;1.27;0.57;;;;;;;9.17;88.52;100343.16;10419321;28;20568;-77
2023/10/09 08:59:44;;;;;;;4.57;0.85;;;;;;;9.54;89.05;100326.91;10419254;28;20037;-78
2023/10/09 09:04:50;;;;;;;1.60;0.60;;;;;;;10.31;86.29;100315.22;10419186;28;20045;-77
2023/10/09 09:10:04;;;;;;;3.75;0.82;;;;;;;10.31;84.00;100254.16;10418971;28;20049;-77
2023/10/09 09:15:12;;;;;;;;;;;;;;;10.97;83.73;100322.88;10418357;28;20492;-77
2023/10/09 09:20:33;;;;;;;5.13;0.80;;;;;;;10.95;81.95;100346.16;10416825;28;19928;-76
2023/10/09 09:26:03;;;;;;;4.68;0.80;;;;;;;10.75;81.23;100326.28;10418392;28;20520;-76
2023/10/09 09:31:22;;;;;;;1.70;0.77;;;;;;;10.39;81.48;100289.50;10417577;28;20463;-76
2023/10/09 09:36:26;;;;;;;1.83;0.93;;;;;;;10.53;80.74;100290.63;10417431;28;20095;-77
2023/10/09 09:41:27;;;;;;;1.63;0.68;;;;;;;10.36;80.33;100299.63;10417194;28;20042;-75
2023/10/09 09:46:37;;;;;;;1.95;0.70;;;;;;;10.62;80.81;100326.81;10417578;28;20049;-76
2023/10/09 09:51:37;;;;;;;4.57;0.90;;;;;;;10.72;80.06;100331.94;10417906;28;20049;-76
2023/10/09 09:56:40;;;;;;;8.65;0.60;;;;;;;10.76;78.46;100340.38;10417872;28;20037;-77
2023/10/09 10:01:42;;;;;;;1.38;0.50;;;;;;;10.77;77.99;100340.25;10416194;28;20073;-76
2023/10/09 10:06:45;;;;;;;1.73;0.70;;;;;;;10.70;77.95;100355.19;10416788;28;20512;-76
2023/10/09 10:11:52;;;;;;;2.10;0.65;;;;;;;10.68;77.83;100342.09;10415816;28;20064;-76
2023/10/09 10:17:16;;;;;;;2.20;0.75;;;;;;;10.88;77.28;100329.22;10416217;28;20413;-76
2023/10/09 10:22:27;;;;;;;3.53;0.68;;;;;;;10.81;76.16;100330.09;10415443;28;20037;-76
2023/10/09 10:27:31;;;;;;;2.38;0.95;;;;;;;10.77;76.92;100340.25;10415322;28;20036;-76
2023/10/09 10:33:09;;;;;;;5.00;0.80;;;;;;;10.90;75.66;100348.50;10416174;28;20051;-76
2023/10/09 10:38:42;;;;;;;2.53;0.90;;;;;;;11.00;75.65;100342.16;10415477;28;20040;-76
2023/10/09 10:48:49;;;;;;;1.67;0.70;;;;;;;11.18;75.55;100340.09;10415601;28;20413;-76
2023/10/09 10:53:52;;;;;;;1.63;0.63;;;;;;;11.07;75.03;100293.47;10414230;28;20046;-76
2023/10/09 11:04:12;;;;;;;2.25;0.60;;;;;;;11.38;73.27;100337.88;10414133;28;20048;-76
2023/10/09 11:09:22;;;;;;;7.30;1.02;;;;;;;11.46;74.26;100321.88;10414676;28;20140;-78
2023/10/09 11:14:25;;;;;;;4.10;0.98;;;;;;;11.50;73.35;100301.91;10414098;28;20547;-77
2023/10/09 11:24:34;;;;;;;1.20;0.60;;;;;;;11.63;72.46;100288.81;10413091;28;20182;-77
2023/10/09 11:34:54;;;;;;;2.92;0.55;;;;;;;11.65;72.20;100324.09;10413707;28;20438;-78
2023/10/09 11:39:55;;;;;;;3.88;0.70;;;;;;;11.71;72.45;100337.69;10412057;28;20041;-77
2023/10/09 11:44:56;;;;;;;1.85;0.80;;;;;;;11.40;73.10;100283.50;10413279;28;20129;-78
2023/10/09 11:55:03;;;;;;;2.42;0.80;;;;;;;11.42;72.93;100265.50;10413114;28;20053;-79
2023/10/09 12:05:27;;;;;;;2.08;0.70;;;;;;;12.03;72.24;100302.91;10412923;28;20140;-78
2023/10/09 12:10:29;;;;;;;1.85;0.80;;;;;;;12.10;72.43;100287.03;10412948;28;20053;-78
2023/10/09 12:15:36;;;;;;;3.63;0.75;;;;;;;12.29;72.27;100312.34;10412313;28;20414;-77
2023/10/09 12:20:37;;;;;;;3.50;0.90;;;;;;;12.48;72.10;100313.69;10412549;28;20047;-78
2023/10/09 12:25:38;;;;;;;2.22;1.00;;;;;;;12.47;71.48;100325.31;10412018;28;20041;-77
2023/10/09 12:30:42;;;;;;;3.85;1.08;;;;;;;12.44;71.25;100307.03;10411624;28;20037;-78
2023/10/09 12:35:47;;;;;;;2.42;0.95;;;;;;;12.47;70.80;100258.72;10412697;28;20046;-78
2023/10/09 12:40:50;;;;;;;;;;;;;;;13.15;69.77;100326.13;10375460;28;20060;-77
2023/10/09 12:45:51;;;;;;;4.15;1.15;;;;;;;13.17;65.76;100332.94;10412066;28;19917;-77
2023/10/09 12:50:53;;;;;;;5.32;1.35;;;;;;;12.79;61.21;100310.84;10413336;28;20045;-77
2023/10/09 12:55:56;;;;;;;2.97;1.10;;;;;;;12.74;60.98;100345.22;10419684;28;20493;-76
2023/10/09 13:01:09;;;;;;;3.42;1.35;;;;;;;12.39;60.60;100342.22;10420174;28;20041;-77
2023/10/09 13:06:13;;;;;;;3.08;1.13;;;;;;;12.22;60.56;100354.03;10419018;28;20041;-76
2023/10/09 13:11:16;;;;;;;;;;;;;;;12.23;61.30;100353.81;10419283;28;20057;-76
2023/10/09 13:16:25;;;;;;;2.20;1.00;;;;;;;11.86;61.45;100310.19;10418147;28;20019;-77
2023/10/09 13:21:34;;;;;;;2.38;0.90;;;;;;;12.18;61.47;100348.22;10417949;28;20091;-77
2023/10/09 13:26:35;;;;;;;2.92;1.00;;;;;;;12.11;60.84;100344.59;10416558;28;20044;-76
2023/10/09 13:31:37;;;;;;;2.97;1.15;;;;;;;12.21;60.07;100368.34;10417498;28;20511;-77
2023/10/09 13:36:38;;;;;;;3.03;1.02;;;;;;;12.06;60.31;100353.13;10418243;28;20500;-77
2023/10/09 13:41:42;;;;;;;2.50;1.23;;;;;;;11.57;61.05;100289.53;10416919;28;20046;-77
2023/10/09 13:46:42;;;;;;;6.40;1.30;;;;;;;11.95;61.47;100376.69;10417554;28;20046;-77
2023/10/09 13:51:44;;;;;;;3.65;1.08;;;;;;;11.85;61.28;100396.38;10416399;28;20049;-77
2023/10/09 13:56:45;;;;;;;6.95;1.65;;;;;;;11.67;62.50;100398.44;10417542;28;20484;-77
2023/10/09 14:01:47;;;;;;;5.50;1.42;;;;;;;11.52;63.61;100398.31;10416239;28;20048;-78
2023/10/09 14:06:49;;;;;;;4.85;1.40;;;;;;;11.33;63.69;100399.53;10415943;28;20041;-77
2023/10/09 14:11:52;;;;;;;19.98;2.15;;;;;;;11.07;64.62;100389.16;10416896;28;20406;-77
2023/10/09 14:16:57;;;;;;;14.73;2.20;;;;;;;10.86;66.73;100397.69;10415693;28;20038;-77
2023/10/09 14:21:57;;;;;;;15.35;1.42;;;;;;;10.42;67.49;100368.81;10416350;28;20045;-77
2023/10/09 14:27:06;;;;;;;15.48;2.00;;;;;;;10.19;67.52;100365.13;10415867;28;20041;-77
2023/10/09 14:32:07;;;;;;;26.58;2.10;;;;;;;10.29;68.09;100418.94;10415740;28;20578;-77
2023/10/09 14:37:11;;;;;;;17.58;1.83;;;;;;;10.09;68.78;100414.91;10415538;28;20448;-77
2023/10/09 14:42:12;;;;;;;38.20;3.53;;;;;;;9.78;69.76;100431.38;10414677;28;20045;-77
2023/10/09 14:47:18;;;;;;;48.35;3.28;;;;;;;9.13;71.27;100386.88;10416659;28;20137;-77
2023/10/09 14:52:20;;;;;;;12.38;1.50;;;;;;;9.13;71.68;100430.09;10414618;28;20033;-77
2023/10/09 14:57:20;;;;;;;15.68;2.00;;;;;;;8.92;72.90;100445.53;10414244;28;20563;-77
2023/10/09 15:02:23;;;;;;;55.70;3.25;;;;;;;8.71;74.05;100434.44;10413928;28;20045;-77
2023/10/09 15:07:24;;;;;;;34.25;2.53;;;;;;;8.52;74.56;100446.00;10413713;28;20037;-78
2023/10/09 15:12:25;;;;;;;13.85;1.77;;;;;;;8.35;74.97;100422.03;10413555;28;20508;-77
2023/10/09 15:17:26;;;;;;;5.82;1.35;;;;;;;8.39;75.72;100457.00;10413844;28;20134;-78
2023/10/09 15:22:35;;;;;;;20.48;7.90;;;;;;;7.88;76.33;100427.50;10409546;28;20100;-80
2023/10/09 15:27:38;;;;;;;10.15;3.20;;;;;;;7.64;76.60;100411.38;10412253;28;20041;-74
2023/10/09 15:32:41;;;;;;;10.07;2.80;;;;;;;7.98;76.89;100475.06;10432912;28;20037;-74
2023/10/09 15:37:43;;;;;;;4.00;1.95;;;;;;;7.94;76.17;100486.91;10413655;28;20107;-74
2023/10/09 15:42:49;;;;;;;7.30;1.98;;;;;;;7.85;75.97;100470.13;10412471;28;20091;-74
2023/10/09 15:47:53;;;;;;;5.55;1.70;;;;;;;7.70;75.53;100438.03;10413838;28;20091;-76
2023/10/09 15:52:55;;;;;;;11.93;1.88;;;;;;;8.07;75.11;100515.66;10415421;28;20627;-75
2023/10/09 15:57:55;;;;;;;10.43;1.55;;;;;;;7.31;74.45;100417.06;10412451;28;20128;-74
2023/10/09 16:02:57;;;;;;;11.07;2.05;;;;;;;7.95;74.61;100520.31;10411745;28;20441;-75
2023/10/09 16:07:58;;;;;;;5.93;1.70;;;;;;;7.72;74.96;100496.09;10411893;28;20064;-75
2023/10/09 16:13:00;;;;;;;5.63;1.63;;;;;;;7.88;75.06;100513.97;10411789;28;20041;-72
2023/10/09 16:18:06;;;;;;;4.07;1.73;;;;;;;7.69;75.82;100497.19;10410185;28;20057;-72
2023/10/09 16:23:09;;;;;;;14.10;1.70;;;;;;;7.57;75.70;100501.00;10408216;28;20080;-76
2023/10/09 16:28:10;;;;;;;7.43;1.73;;;;;;;7.72;75.46;100543.69;10417621;28;20080;-72
2023/10/09 16:33:11;;;;;;;6.15;1.40;;;;;;;7.80;74.90;100529.72;10417931;28;20124;-70
2023/10/09 16:38:12;;;;;;;3.85;1.00;;;;;;;7.81;73.91;100523.44;10418240;28;20412;-72
2023/10/09 16:43:13;;;;;;;7.22;1.23;;;;;;;7.89;73.08;100528.84;10414588;28;20060;-77
2023/10/09 16:48:15;;;;;;;4.30;1.17;;;;;;;8.04;72.16;100535.31;10419349;28;20048;-72
2023/10/09 16:53:16;;;;;;;2.85;0.98;;;;;;;8.30;71.62;100558.44;10419554;28;20087;-76
2023/10/09 16:58:17;;;;;;;3.83;1.05;;;;;;;7.93;70.99;100478.16;10419909;28;20052;-86
2023/10/09 17:03:20;;;;;;;3.70;1.13;;;;;;;8.07;70.89;100511.19;10425201;28;20053;-75
2023/10/09 17:08:29;;;;;;;2.20;0.80;;;;;;;8.32;70.98;100556.50;10429636;28;20057;-74
2023/10/09 17:13:30;;;;;;;4.38;1.00;;;;;;;8.38;71.12;100582.38;10418916;28;20497;-74
2023/10/09 17:18:31;;;;;;;5.30;1.35;;;;;;;8.22;72.17;100577.69;10418113;28;20491;-73
2023/10/09 17:23:32;;;;;;;3.78;0.90;;;;;;;8.19;72.55;100592.06;10417952;28;20064;-71
2023/10/09 17:28:33;;;;;;;3.85;1.50;;;;;;;8.07;73.35;100589.75;10417936;28;20425;-72
2023/10/09 17:33:34;;;;;;;4.53;1.00;;;;;;;7.96;74.15;100583.69;10418431;28;20037;-79
2023/10/09 17:38:35;;;;;;;3.58;1.33;;;;;;;8.13;74.62;100610.34;10417142;28;20136;-74
2023/10/09 17:43:36;;;;;;;4.07;1.50;;;;;;;8.08;74.13;100605.50;10416867;28;20132;-74
2023/10/09 17:48:38;;;;;;;7.78;1.10;;;;;;;8.18;74.29;100611.56;10416812;28;20448;-71
2023/10/09 17:53:40;;;;;;;2.60;1.10;;;;;;;8.17;73.92;100590.56;10418072;28;20033;-70
2023/10/09 17:58:49;;;;;;;2.42;1.05;;;;;;;8.58;73.64;100647.47;10417911;28;20049;-72
2023/10/09 18:03:50;;;;;;;3.47;1.30;;;;;;;8.36;73.22;100606.31;10415755;28;20501;-79
2023/10/09 18:08:55;;;;;;;2.00;0.77;;;;;;;8.36;72.78;100601.03;10416576;28;20053;-77
2023/10/09 18:13:56;;;;;;;6.95;1.17;;;;;;;8.80;72.35;100670.09;10414227;28;20167;-77
2023/10/09 18:18:57;;;;;;;2.78;1.10;;;;;;;8.78;72.66;100673.88;10415099;28;20172;-76
2023/10/09 18:24:05;;;;;;;6.25;1.60;;;;;;;8.73;72.80;100682.25;10416298;28;20045;-77
2023/10/09 18:29:08;;;;;;;4.60;1.67;;;;;;;8.83;72.98;100704.25;10422409;28;20073;-76
2023/10/09 18:34:09;;;;;;;5.97;1.55;;;;;;;8.86;73.44;100711.06;10424498;28;20124;-75
2023/10/09 18:39:12;;;;;;;4.15;1.48;;;;;;;8.85;73.37;100701.44;10415432;28;20041;-77
2023/10/09 18:44:13;;;;;;;2.63;1.10;;;;;;;8.66;73.53;100676.72;10414544;28;20045;-77
2023/10/09 18:49:15;;;;;;;3.30;1.30;;;;;;;8.90;73.82;100709.78;10411438;28;20053;-77
2023/10/09 18:54:16;;;;;;;3.17;1.13;;;;;;;8.91;74.22;100711.44;10415405;28;20053;-76
2023/10/09 18:59:23;;;;;;;2.60;0.98;;;;;;;8.84;74.35;100710.38;10414605;28;20479;-76
2023/10/09 19:04:24;;;;;;;7.85;1.08;;;;;;;8.77;74.33;100701.34;10413994;28;20041;-76
2023/10/09 19:09:25;;;;;;;3.05;1.10;;;;;;;8.70;74.44;100695.78;10412807;28;20057;-76
2023/10/09 19:14:28;;;;;;;2.28;0.90;;;;;;;8.63;74.54;100689.44;10412287;28;20471;-76
2023/10/09 19:19:29;;;;;;;5.53;0.80;;;;;;;8.50;75.76;100686.28;10410178;28;20049;-78
2023/10/09 19:24:30;;;;;;;4.70;0.98;;;;;;;8.29;76.26;100670.59;10411369;28;20041;-76
2023/10/09 19:29:31;;;;;;;7.50;1.00;;;;;;;8.11;77.13;100652.84;10413836;28;20417;-77
2023/10/09 19:34:34;;;;;;;6.70;0.88;;;;;;;8.39;77.62;100703.19;10413215;28;20053;-76
2023/10/09 19:39:35;;;;;;;3.38;1.15;;;;;;;8.24;78.06;100703.63;10414111;28;20104;-76
2023/10/09 19:44:36;;;;;;;5.13;1.33;;;;;;;8.40;78.13;100723.38;10410790;28;20045;-76
2023/10/09 19:49:39;;;;;;;4.28;0.75;;;;;;;8.07;77.64;100693.75;10413168;28;20069;-76
2023/10/09 19:54:42;;;;;;;5.10;0.90;;;;;;;8.18;77.38;100709.47;10412646;28;20037;-76
2023/10/09 19:59:43;;;;;;;2.70;0.80;;;;;;;8.31;76.67;100713.63;10413808;28;20041;-75
2023/10/09 20:04:47;;;;;;;3.13;0.65;;;;;;;8.00;76.19;100668.88;10420785;28;20099;-76
2023/10/09 20:09:48;;;;;;;5.25;1.00;;;;;;;7.87;76.13;100657.78;10420500;28;20602;-75
2023/10/09 20:14:51;;;;;;;2.38;0.70;;;;;;;8.17;75.84;100707.00;10420448;28;20042;-75
2023/10/09 20:19:53;;;;;;;2.17;0.90;;;;;;;7.90;76.21;100686.59;10420861;28;20041;-76
2023/10/09 20:24:53;;;;;;;4.85;1.25;;;;;;;8.05;76.89;100734.56;10419014;28;20128;-76
2023/10/09 20:29:54;;;;;;;3.97;1.00;;;;;;;7.40;77.73;100661.16;10419816;28;20045;-76
2023/10/09 20:34:57;;;;;;;6.88;1.25;;;;;;;7.72;78.33;100740.19;10419847;28;20041;-76
2023/10/09 20:39:58;;;;;;;7.50;1.20;;;;;;;7.16;78.59;100690.63;10420335;28;20041;-76
2023/10/09 20:45:00;;;;;;;3.75;1.13;;;;;;;7.17;79.52;100734.56;10420254;28;20507;-75
2023/10/09 20:50:01;;;;;;;4.35;1.00;;;;;;;6.98;80.09;100734.53;10420316;28;20123;-75
2023/10/09 20:55:01;;;;;;;6.22;1.55;;;;;;;7.08;80.17;100751.25;10419696;28;20045;-76
2023/10/09 21:00:03;;;;;;;16.25;1.67;;;;;;;6.67;80.68;100707.31;10419474;28;20033;-75
2023/10/09 21:05:04;;;;;;;10.13;1.40;;;;;;;6.71;81.79;100749.19;10417872;28;20045;-75
2023/10/09 21:10:06;;;;;;;16.05;1.20;;;;;;;6.65;81.95;100760.28;10417918;28;20527;-75
2023/10/09 21:15:13;;;;;;;6.22;1.08;;;;;;;6.66;81.92;100777.78;10418655;28;20128;-75
2023/10/09 21:20:17;;;;;;;4.95;1.50;;;;;;;6.46;82.22;100731.13;10418634;28;20136;-76
2023/10/09 21:25:20;;;;;;;3.30;0.80;;;;;;;6.60;82.03;100754.56;10418036;28;20080;-76
2023/10/09 21:30:23;;;;;;;5.22;1.10;;;;;;;6.44;81.04;100730.47;10418610;28;20044;-75
2023/10/09 21:35:27;;;;;;;13.05;1.63;;;;;;;6.78;81.22;100770.59;10418620;28;20390;-75
2023/10/09 21:40:29;;;;;;;2.80;0.98;;;;;;;6.54;81.43;100723.41;10417826;28;20033;-75
2023/10/09 21:45:29;;;;;;;2.95;1.00;;;;;;;6.71;80.77;100745.72;10417068;28;20122;-76
2023/10/09 21:50:30;;;;;;;3.45;0.85;;;;;;;6.96;81.24;100786.66;10417056;28;20120;-76
2023/10/09 21:55:33;;;;;;;3.00;0.90;;;;;;;6.94;80.83;100778.88;10416887;28;20045;-75
2023/10/09 22:00:36;;;;;;;6.97;0.90;;;;;;;6.98;81.08;100782.09;10417678;28;20107;-76
2023/10/09 22:05:43;;;;;;;9.30;1.15;;;;;;;6.58;81.26;100711.59;10416730;28;20037;-75
2023/10/09 22:10:45;;;;;;;3.22;0.77;;;;;;;6.72;80.56;100734.19;10416293;28;20065;-76
2023/10/09 22:15:48;;;;;;;2.85;0.90;;;;;;;6.96;80.87;100765.53;10415869;28;20071;-76
2023/10/09 22:20:49;;;;;;;7.85;0.90;;;;;;;7.08;80.61;100772.38;10415443;28;20049;-76
2023/10/09 22:26:00;;;;;;;1.63;0.70;;;;;;;7.02;80.69;100751.78;10415266;28;20049;-76
2023/10/09 22:31:03;;;;;;;8.05;0.80;;;;;;;7.18;80.44;100782.97;10415397;28;20457;-76
2023/10/09 22:36:04;;;;;;;6.53;0.80;;;;;;;7.19;80.50;100774.09;10413962;28;20091;-76
2023/10/09 22:41:06;;;;;;;7.72;1.10;;;;;;;7.13;80.89;100771.97;10415771;28;20045;-76
2023/10/09 22:46:07;;;;;;;2.53;0.82;;;;;;;7.06;81.18;100798.13;10415260;28;20382;-76
2023/10/09 22:51:11;;;;;;;11.13;1.05;;;;;;;6.96;81.78;100773.44;10415073;28;20045;-76
2023/10/09 22:56:16;;;;;;;2.13;0.80;;;;;;;6.92;81.87;100769.41;10414366;28;20168;-76
2023/10/09 23:01:26;;;;;;;3.78;1.13;;;;;;;6.86;82.00;100761.06;10415199;28;20041;-76
2023/10/09 23:06:33;;;;;;;30.70;2.05;;;;;;;6.73;82.60;100746.41;10414613;28;20045;-76
2023/10/09 23:11:33;;;;;;;18.50;2.47;;;;;;;6.52;82.18;100727.97;10413191;28;20126;-76
2023/10/09 23:16:48;;;;;;;5.60;1.35;;;;;;;6.74;82.93;100777.13;10414011;28;20086;-76
2023/10/09 23:27:25;;;;;;;8.38;1.15;;;;;;;6.59;83.07;100758.16;10413479;28;19917;-75
2023/10/09 23:32:32;;;;;;;6.68;1.52;;;;;;;6.60;82.76;100759.84;10413599;28;20068;-76
2023/10/09 23:38:18;;;;;;;4.32;1.10;;;;;;;6.52;83.42;100764.94;10412919;28;20064;-76
2023/10/09 23:43:12;;;;;;;3.00;0.70;;;;;;;6.35;83.90;100748.75;10413271;28;20120;-76
2023/10/09 23:48:23;;;;;;;2.45;0.93;;;;;;;6.46;83.57;100754.91;10412872;28;20037;-76
2023/10/09 23:53:28;;;;;;;2.50;0.90;;;;;;;6.32;83.40;100725.25;10411647;28;20081;-76
2023/10/09 23:58:35;;;;;;;5.65;1.35;;;;;;;6.68;83.23;100762.66;10412528;28;20123;-75
